createdAt,value
2019-02-25T00:00:12.836Z,1033.20
2019-02-25T00:01:12.946Z,1033.19
2019-02-25T00:02:12.819Z,1033.15
2019-02-25T00:03:12.811Z,1033.14
2019-02-25T00:04:12.795Z,1033.15
2019-02-25T00:05:12.790Z,1033.13
2019-02-25T00:06:12.777Z,1033.04
2019-02-25T00:07:12.874Z,1033.04
2019-02-25T00:08:12.758Z,1033.13
2019-02-25T00:09:12.915Z,1033.09
2019-02-25T00:10:12.741Z,1033.15
2019-02-25T00:11:12.758Z,1033.16
2019-02-25T00:12:12.796Z,1033.17
2019-02-25T00:13:12.736Z,1033.15
2019-02-25T00:14:12.694Z,1033.17
2019-02-25T00:15:12.684Z,1033.14
2019-02-25T00:16:12.673Z,1033.18
2019-02-25T00:17:12.662Z,1033.21
2019-02-25T00:18:12.782Z,1033.19
2019-02-25T00:19:12.753Z,1033.20
2019-02-25T00:20:12.678Z,1033.23
2019-02-25T00:21:12.607Z,1033.16
2019-02-25T00:22:12.598Z,1033.16
2019-02-25T00:23:12.761Z,1033.21
2019-02-25T00:24:12.588Z,1033.00
2019-02-25T00:25:12.580Z,1033.02
2019-02-25T00:26:12.686Z,1032.94
2019-02-25T00:27:12.551Z,1032.96
2019-02-25T00:28:12.547Z,1032.96
2019-02-25T00:29:12.580Z,1032.95
2019-02-25T00:30:12.516Z,1032.97
2019-02-25T00:31:12.524Z,1032.95
2019-02-25T00:32:12.572Z,1032.93
2019-02-25T00:33:12.494Z,1032.98
2019-02-25T00:34:12.470Z,1033.01
2019-02-25T00:35:12.454Z,1033.00
2019-02-25T00:36:12.464Z,1032.98
2019-02-25T00:37:12.441Z,1033.02
2019-02-25T00:38:12.525Z,1032.99
2019-02-25T00:39:12.423Z,1033.07
2019-02-25T00:40:12.414Z,1032.97
2019-02-25T00:41:12.410Z,1032.95
2019-02-25T00:42:12.398Z,1033.01
2019-02-25T00:43:12.508Z,1032.99
2019-02-25T00:44:12.361Z,1033.03
2019-02-25T00:45:12.351Z,1033.00
2019-02-25T00:46:12.446Z,1033.07
2019-02-25T00:47:12.350Z,1033.07
2019-02-25T00:48:12.332Z,1033.05
2019-02-25T00:49:12.311Z,1033.06
2019-02-25T00:50:12.300Z,1033.01
2019-02-25T00:51:12.297Z,1033.06
2019-02-25T00:52:12.790Z,1033.05
2019-02-25T00:53:12.276Z,1033.08
2019-02-25T00:54:12.303Z,1033.03
2019-02-25T00:55:12.273Z,1033.01
2019-02-25T00:56:12.247Z,1033.01
2019-02-25T00:57:12.225Z,1033.01
2019-02-25T00:58:12.355Z,1033.00
2019-02-25T00:59:12.205Z,1032.97
2019-02-25T01:00:12.183Z,1033.00
2019-02-25T01:01:12.169Z,1032.98
2019-02-25T01:02:12.181Z,1032.99
2019-02-25T01:03:12.148Z,1032.96
2019-02-25T01:04:12.320Z,1032.91
2019-02-25T01:05:12.141Z,1032.95
2019-02-25T01:06:12.135Z,1032.93
2019-02-25T01:07:12.114Z,1032.91
2019-02-25T01:08:12.101Z,1032.96
2019-02-25T01:09:12.106Z,1032.89
2019-02-25T01:10:12.165Z,1032.87
2019-02-25T01:11:12.074Z,1032.91
2019-02-25T01:12:12.076Z,1032.91
2019-02-25T01:13:12.071Z,1032.90
2019-02-25T01:14:12.141Z,1032.92
2019-02-25T01:15:12.115Z,1032.93
2019-02-25T01:16:12.132Z,1032.95
2019-02-25T01:17:12.022Z,1033.00
2019-02-25T01:18:11.988Z,1033.00
2019-02-25T01:19:12.003Z,1033.00
2019-02-25T01:20:11.974Z,1032.99
2019-02-25T01:21:12.063Z,1033.02
2019-02-25T01:22:11.947Z,1032.98
2019-02-25T01:23:12.216Z,1032.95
2019-02-25T01:24:11.921Z,1032.96
2019-02-25T01:25:11.908Z,1032.99
2019-02-25T01:26:11.912Z,1032.99
2019-02-25T01:27:11.980Z,1032.95
2019-02-25T01:28:11.985Z,1032.95
2019-02-25T01:29:11.873Z,1032.91
2019-02-25T01:30:11.888Z,1032.90
2019-02-25T01:31:11.842Z,1032.90
2019-02-25T01:32:11.878Z,1032.86
2019-02-25T01:33:11.816Z,1032.88
2019-02-25T01:34:11.991Z,1032.94
2019-02-25T01:35:11.804Z,1032.94
2019-02-25T01:36:11.790Z,1032.97
2019-02-25T01:37:11.774Z,1033.01
2019-02-25T01:38:11.769Z,1032.98
2019-02-25T01:39:11.852Z,1032.94
2019-02-25T01:40:11.758Z,1032.91
2019-02-25T01:41:11.746Z,1032.89
2019-02-25T01:42:11.720Z,1032.91
2019-02-25T01:43:11.793Z,1032.89
2019-02-25T01:44:11.699Z,1032.83
2019-02-25T01:45:11.704Z,1032.85
2019-02-25T01:46:11.849Z,1032.82
2019-02-25T01:47:11.695Z,1032.83
2019-02-25T01:48:11.667Z,1032.81
2019-02-25T01:49:11.650Z,1032.79
2019-02-25T01:50:11.643Z,1032.76
2019-02-25T01:51:11.621Z,1032.74
2019-02-25T01:52:11.782Z,1032.71
2019-02-25T01:53:11.611Z,1032.67
2019-02-25T01:54:11.600Z,1032.72
2019-02-25T01:55:11.656Z,1032.78
2019-02-25T01:56:11.561Z,1032.81
2019-02-25T01:57:11.560Z,1032.85
2019-02-25T01:58:11.667Z,1032.85
2019-02-25T01:59:11.555Z,1032.86
2019-02-25T02:00:11.549Z,1032.76
2019-02-25T02:01:11.528Z,1032.80
2019-02-25T02:02:11.500Z,1032.75
2019-02-25T02:03:11.503Z,1032.72
2019-02-25T02:04:11.641Z,1032.63
2019-02-25T02:05:11.470Z,1032.69
2019-02-25T02:06:11.457Z,1032.73
2019-02-25T02:07:11.441Z,1032.73
2019-02-25T02:08:11.451Z,1032.71
2019-02-25T02:09:11.429Z,1032.75
2019-02-25T02:10:11.531Z,1032.75
2019-02-25T02:11:11.411Z,1032.72
2019-02-25T02:12:11.395Z,1032.72
2019-02-25T02:13:14.135Z,1032.72
2019-02-25T02:14:11.375Z,1032.71
2019-02-25T02:15:11.359Z,1032.70
2019-02-25T02:16:11.375Z,1032.66
2019-02-25T02:17:11.339Z,1032.62
2019-02-25T02:18:11.327Z,1032.59
2019-02-25T02:19:11.424Z,1032.56
2019-02-25T02:20:11.310Z,1032.58
2019-02-25T02:21:11.316Z,1032.55
2019-02-25T02:22:11.280Z,1032.59
2019-02-25T02:23:11.291Z,1032.54
2019-02-25T02:24:11.268Z,1032.56
2019-02-25T02:25:11.380Z,1032.54
2019-02-25T02:26:11.238Z,1032.50
2019-02-25T02:27:11.235Z,1032.51
2019-02-25T02:28:11.259Z,1032.54
2019-02-25T02:29:11.272Z,1032.57
2019-02-25T02:30:11.421Z,1032.58
2019-02-25T02:31:11.219Z,1032.61
2019-02-25T02:32:11.182Z,1032.60
2019-02-25T02:33:11.171Z,1032.54
2019-02-25T02:34:11.144Z,1032.58
2019-02-25T02:35:11.131Z,1032.57
2019-02-25T02:36:11.798Z,1032.51
2019-02-25T02:37:11.113Z,1032.52
2019-02-25T02:38:11.123Z,1032.52
2019-02-25T02:39:11.127Z,1032.48
2019-02-25T02:40:11.091Z,1032.49
2019-02-25T02:41:11.149Z,1032.48
2019-02-25T02:42:11.063Z,1032.48
2019-02-25T02:43:11.054Z,1032.46
2019-02-25T02:44:11.037Z,1032.41
2019-02-25T02:45:11.031Z,1032.48
2019-02-25T02:46:11.030Z,1032.48
2019-02-25T02:47:11.072Z,1032.48
2019-02-25T02:48:11.086Z,1032.44
2019-02-25T02:49:10.998Z,1032.42
2019-02-25T02:50:11.110Z,1032.45
2019-02-25T02:51:10.984Z,1032.41
2019-02-25T02:52:10.966Z,1032.40
2019-02-25T02:53:11.471Z,1032.43
2019-02-25T02:54:11.031Z,1032.38
2019-02-25T02:55:11.356Z,1032.38
2019-02-25T02:56:10.919Z,1032.32
2019-02-25T02:57:10.902Z,1032.34
2019-02-25T02:58:10.965Z,1032.32
2019-02-25T02:59:10.884Z,1032.28
2019-02-25T03:00:10.866Z,1032.28
2019-02-25T03:01:10.863Z,1032.26
2019-02-25T03:02:10.836Z,1032.30
2019-02-25T03:03:10.827Z,1032.26
2019-02-25T03:04:10.935Z,1032.33
2019-02-25T03:05:10.805Z,1032.32
2019-02-25T03:06:10.791Z,1032.32
2019-02-25T03:07:10.810Z,1032.40
2019-02-25T03:08:10.781Z,1032.36
2019-02-25T03:09:10.761Z,1032.33
2019-02-25T03:10:10.918Z,1032.38
2019-02-25T03:11:10.828Z,1032.37
2019-02-25T03:12:10.733Z,1032.43
2019-02-25T03:13:10.763Z,1032.44
2019-02-25T03:14:10.705Z,1032.48
2019-02-25T03:15:10.696Z,1032.50
2019-02-25T03:16:10.876Z,1032.52
2019-02-25T03:17:10.696Z,1032.56
2019-02-25T03:18:10.673Z,1032.58
2019-02-25T03:19:10.815Z,1032.56
2019-02-25T03:20:10.678Z,1032.56
2019-02-25T03:21:10.640Z,1032.57
2019-02-25T03:22:10.619Z,1032.53
2019-02-25T03:23:10.711Z,1032.53
2019-02-25T03:24:10.610Z,1032.54
2019-02-25T03:25:10.617Z,1032.55
2019-02-25T03:26:10.593Z,1032.55
2019-02-25T03:27:10.639Z,1032.56
2019-02-25T03:28:10.575Z,1032.57
2019-02-25T03:29:11.427Z,1032.53
2019-02-25T03:30:10.622Z,1032.56
2019-02-25T03:31:10.544Z,1032.50
2019-02-25T03:32:10.513Z,1032.53
2019-02-25T03:33:10.515Z,1032.55
2019-02-25T03:34:10.489Z,1032.56
2019-02-25T03:35:10.589Z,1032.57
2019-02-25T03:36:10.488Z,1032.56
2019-02-25T03:37:10.487Z,1032.56
2019-02-25T03:38:10.462Z,1032.56
2019-02-25T03:39:10.551Z,1032.54
2019-02-25T03:40:10.528Z,1032.53
2019-02-25T03:41:10.423Z,1032.55
2019-02-25T03:42:10.429Z,1032.56
2019-02-25T03:43:11.186Z,1032.58
2019-02-25T03:44:10.425Z,1032.59
2019-02-25T03:45:10.378Z,1032.57
2019-02-25T03:46:10.501Z,1032.58
2019-02-25T03:47:10.367Z,1032.56
2019-02-25T03:48:10.358Z,1032.55
2019-02-25T03:49:10.347Z,1032.55
2019-02-25T03:50:10.328Z,1032.53
2019-02-25T03:51:10.315Z,1032.53
2019-02-25T03:52:10.379Z,1032.48
2019-02-25T03:53:10.310Z,1032.48
2019-02-25T03:54:10.296Z,1032.44
2019-02-25T03:55:10.288Z,1032.44
2019-02-25T03:56:10.256Z,1032.40
2019-02-25T03:57:10.241Z,1032.44
2019-02-25T03:58:10.349Z,1032.43
2019-02-25T03:59:10.225Z,1032.40
2019-02-25T04:00:10.340Z,1032.48
2019-02-25T04:01:10.536Z,1032.47
2019-02-25T04:02:10.265Z,1032.43
2019-02-25T04:03:10.223Z,1032.48
2019-02-25T04:04:10.419Z,1032.42
2019-02-25T04:05:10.167Z,1032.47
2019-02-25T04:06:10.157Z,1032.44
2019-02-25T04:07:10.144Z,1032.45
2019-02-25T04:08:10.300Z,1032.48
2019-02-25T04:09:10.120Z,1032.44
2019-02-25T04:10:10.110Z,1032.50
2019-02-25T04:11:10.109Z,1032.45
2019-02-25T04:12:10.098Z,1032.42
2019-02-25T04:13:10.121Z,1032.40
2019-02-25T04:14:10.166Z,1032.42
2019-02-25T04:15:10.090Z,1032.38
2019-02-25T04:16:10.145Z,1032.35
2019-02-25T04:17:10.538Z,1032.31
2019-02-25T04:18:10.109Z,1032.32
2019-02-25T04:19:10.234Z,1032.30
2019-02-25T04:20:10.013Z,1032.29
2019-02-25T04:21:10.006Z,1032.30
2019-02-25T04:22:09.993Z,1032.33
2019-02-25T04:23:09.972Z,1032.28
2019-02-25T04:24:09.958Z,1032.29
2019-02-25T04:25:10.038Z,1032.27
2019-02-25T04:26:09.932Z,1032.30
2019-02-25T04:27:09.922Z,1032.26
2019-02-25T04:28:09.924Z,1032.29
2019-02-25T04:29:09.920Z,1032.25
2019-02-25T04:30:09.909Z,1032.27
2019-02-25T04:31:09.950Z,1032.20
2019-02-25T04:32:09.882Z,1032.19
2019-02-25T04:33:09.896Z,1032.18
2019-02-25T04:34:09.854Z,1032.16
2019-02-25T04:35:09.842Z,1032.12
2019-02-25T04:36:09.909Z,1032.18
2019-02-25T04:37:09.823Z,1032.20
2019-02-25T04:38:09.810Z,1032.23
2019-02-25T04:39:09.817Z,1032.30
2019-02-25T04:40:09.794Z,1032.34
2019-02-25T04:41:09.784Z,1032.35
2019-02-25T04:42:09.844Z,1032.39
2019-02-25T04:43:09.838Z,1032.39
2019-02-25T04:44:09.736Z,1032.44
2019-02-25T04:45:09.739Z,1032.43
2019-02-25T04:46:09.736Z,1032.44
2019-02-25T04:47:09.712Z,1032.40
2019-02-25T04:48:09.881Z,1032.42
2019-02-25T04:49:09.687Z,1032.40
2019-02-25T04:50:09.732Z,1032.43
2019-02-25T04:51:09.672Z,1032.51
2019-02-25T04:52:09.681Z,1032.53
2019-02-25T04:53:09.666Z,1032.54
2019-02-25T04:54:09.952Z,1032.57
2019-02-25T04:55:09.731Z,1032.64
2019-02-25T04:56:09.626Z,1032.69
2019-02-25T04:57:09.604Z,1032.67
2019-02-25T04:58:09.593Z,1032.68
2019-02-25T04:59:09.581Z,1032.67
2019-02-25T05:00:09.681Z,1032.56
2019-02-25T05:01:09.560Z,1032.54
2019-02-25T05:02:10.559Z,1032.51
2019-02-25T05:03:09.548Z,1032.45
2019-02-25T05:04:09.545Z,1032.47
2019-02-25T05:05:09.650Z,1032.45
2019-02-25T05:06:09.605Z,1032.51
2019-02-25T05:07:09.573Z,1032.54
2019-02-25T05:08:09.478Z,1032.58
2019-02-25T05:09:09.496Z,1032.60
2019-02-25T05:10:09.467Z,1032.62
2019-02-25T05:11:09.568Z,1032.60
2019-02-25T05:12:09.545Z,1032.62
2019-02-25T05:13:09.435Z,1032.65
2019-02-25T05:14:09.457Z,1032.66
2019-02-25T05:15:09.958Z,1032.66
2019-02-25T05:16:09.418Z,1032.68
2019-02-25T05:17:09.409Z,1032.65
2019-02-25T05:18:09.379Z,1032.75
2019-02-25T05:19:09.372Z,1032.71
2019-02-25T05:20:09.363Z,1032.74
2019-02-25T05:21:09.472Z,1032.75
2019-02-25T05:22:09.462Z,1032.76
2019-02-25T05:23:09.325Z,1032.76
2019-02-25T05:24:09.314Z,1032.77
2019-02-25T05:25:09.298Z,1032.71
2019-02-25T05:26:09.314Z,1032.77
2019-02-25T05:27:09.302Z,1032.70
2019-02-25T05:28:09.944Z,1032.71
2019-02-25T05:29:09.249Z,1032.73
2019-02-25T05:30:09.242Z,1032.74
2019-02-25T05:31:09.242Z,1032.76
2019-02-25T05:32:09.229Z,1032.73
2019-02-25T05:33:09.406Z,1032.79
2019-02-25T05:34:09.250Z,1032.76
2019-02-25T05:35:09.242Z,1032.72
2019-02-25T05:36:09.219Z,1032.66
2019-02-25T05:37:09.234Z,1032.66
2019-02-25T05:38:09.204Z,1032.69
2019-02-25T05:39:09.409Z,1032.68
2019-02-25T05:40:09.270Z,1032.64
2019-02-25T05:41:09.128Z,1032.66
2019-02-25T05:42:09.115Z,1032.64
2019-02-25T05:43:09.502Z,1032.66
2019-02-25T05:44:10.081Z,1032.71
2019-02-25T05:45:09.099Z,1032.73
2019-02-25T05:46:09.104Z,1032.72
2019-02-25T05:47:09.059Z,1032.73
2019-02-25T05:48:09.070Z,1032.73
2019-02-25T05:49:09.046Z,1032.72
2019-02-25T05:50:09.139Z,1032.67
2019-02-25T05:51:09.021Z,1032.73
2019-02-25T05:52:09.007Z,1032.69
2019-02-25T05:53:08.986Z,1032.67
2019-02-25T05:54:09.025Z,1032.71
2019-02-25T05:55:08.998Z,1032.77
2019-02-25T05:56:09.252Z,1032.70
2019-02-25T05:57:08.970Z,1032.79
2019-02-25T05:58:08.942Z,1032.84
2019-02-25T05:59:08.929Z,1032.81
2019-02-25T06:00:08.916Z,1032.82
2019-02-25T06:01:08.927Z,1032.81
2019-02-25T06:02:08.989Z,1032.79
2019-02-25T06:03:08.900Z,1032.79
2019-02-25T06:04:08.875Z,1032.78
2019-02-25T06:05:08.867Z,1032.79
2019-02-25T06:06:08.936Z,1032.79
2019-02-25T06:07:10.430Z,1032.81
2019-02-25T06:08:08.953Z,1032.85
2019-02-25T06:09:08.820Z,1032.81
2019-02-25T06:10:08.814Z,1032.80
2019-02-25T06:11:08.803Z,1032.78
2019-02-25T06:12:08.785Z,1032.73
2019-02-25T06:13:08.996Z,1032.73
2019-02-25T06:14:09.044Z,1032.75
2019-02-25T06:15:08.769Z,1032.78
2019-02-25T06:16:08.906Z,1032.81
2019-02-25T06:17:08.813Z,1032.78
2019-02-25T06:18:08.792Z,1032.76
2019-02-25T06:19:08.943Z,1032.76
2019-02-25T06:20:08.715Z,1032.81
2019-02-25T06:21:08.697Z,1032.79
2019-02-25T06:22:08.682Z,1032.74
2019-02-25T06:23:08.680Z,1032.75
2019-02-25T06:24:08.680Z,1032.84
2019-02-25T06:25:08.868Z,1032.82
2019-02-25T06:26:08.719Z,1032.84
2019-02-25T06:27:08.646Z,1032.86
2019-02-25T06:28:08.624Z,1032.92
2019-02-25T06:29:08.606Z,1032.88
2019-02-25T06:30:08.626Z,1032.83
2019-02-25T06:31:08.680Z,1032.81
2019-02-25T06:32:08.603Z,1032.82
2019-02-25T06:33:09.190Z,1032.85
2019-02-25T06:34:08.566Z,1032.84
2019-02-25T06:35:08.549Z,1032.88
2019-02-25T06:36:08.644Z,1032.92
2019-02-25T06:37:08.524Z,1032.93
2019-02-25T06:38:08.519Z,1032.91
2019-02-25T06:39:08.499Z,1032.96
2019-02-25T06:40:08.487Z,1032.94
2019-02-25T06:41:09.230Z,1032.96
2019-02-25T06:42:08.565Z,1032.95
2019-02-25T06:43:08.580Z,1032.94
2019-02-25T06:44:08.447Z,1032.93
2019-02-25T06:45:08.487Z,1032.97
2019-02-25T06:46:08.456Z,1032.92
2019-02-25T06:47:08.482Z,1032.98
2019-02-25T06:48:08.391Z,1033.03
2019-02-25T06:49:08.585Z,1032.99
2019-02-25T06:50:09.253Z,1033.02
2019-02-25T06:51:08.581Z,1033.05
2019-02-25T06:52:08.406Z,1033.08
2019-02-25T06:53:08.420Z,1033.11
2019-02-25T06:54:08.486Z,1033.11
2019-02-25T06:55:08.471Z,1033.17
2019-02-25T06:56:08.565Z,1033.13
2019-02-25T06:57:08.393Z,1033.16
2019-02-25T06:58:08.537Z,1033.16
2019-02-25T06:59:08.370Z,1033.14
2019-02-25T07:00:08.441Z,1033.14
2019-02-25T07:01:08.386Z,1033.16
2019-02-25T07:02:08.680Z,1033.15
2019-02-25T07:03:08.390Z,1033.14
2019-02-25T07:04:08.487Z,1033.13
2019-02-25T07:05:08.388Z,1033.19
2019-02-25T07:06:08.457Z,1033.16
2019-02-25T07:07:08.375Z,1033.17
2019-02-25T07:08:08.707Z,1033.17
2019-02-25T07:09:08.377Z,1033.20
2019-02-25T07:10:08.395Z,1033.23
2019-02-25T07:11:08.394Z,1033.24
2019-02-25T07:12:08.701Z,1033.25
2019-02-25T07:13:08.355Z,1033.29
2019-02-25T07:14:08.600Z,1033.31
2019-02-25T07:15:08.414Z,1033.23
2019-02-25T07:16:08.458Z,1033.21
2019-02-25T07:17:08.410Z,1033.18
2019-02-25T07:18:08.415Z,1033.12
2019-02-25T07:19:08.696Z,1033.16
2019-02-25T07:20:08.381Z,1033.16
2019-02-25T07:21:08.405Z,1033.17
2019-02-25T07:22:08.405Z,1033.20
2019-02-25T07:23:08.444Z,1033.22
2019-02-25T07:24:08.418Z,1033.23
2019-02-25T07:25:09.426Z,1033.24
2019-02-25T07:26:08.314Z,1033.21
2019-02-25T07:27:08.154Z,1033.21
2019-02-25T07:28:07.963Z,1033.26
2019-02-25T07:29:07.960Z,1033.22
2019-02-25T07:30:07.956Z,1033.26
2019-02-25T07:31:08.606Z,1033.28
2019-02-25T07:32:07.931Z,1033.23
2019-02-25T07:33:07.931Z,1033.26
2019-02-25T07:34:07.901Z,1033.29
2019-02-25T07:35:08.585Z,1033.30
2019-02-25T07:36:07.942Z,1033.24
2019-02-25T07:37:07.979Z,1033.35
2019-02-25T07:38:07.865Z,1033.31
2019-02-25T07:39:07.839Z,1033.30
2019-02-25T07:40:07.835Z,1033.32
2019-02-25T07:41:08.384Z,1033.25
2019-02-25T07:42:07.821Z,1033.28
2019-02-25T07:43:07.924Z,1033.35
2019-02-25T07:44:07.794Z,1033.27
2019-02-25T07:45:08.856Z,1033.25
2019-02-25T07:46:07.784Z,1033.20
2019-02-25T07:47:07.759Z,1033.29
2019-02-25T07:48:07.953Z,1033.29
2019-02-25T07:49:07.739Z,1033.27
2019-02-25T07:50:07.735Z,1033.24
2019-02-25T07:51:07.711Z,1033.22
2019-02-25T07:52:07.734Z,1033.28
2019-02-25T07:53:09.865Z,1033.31
2019-02-25T07:54:07.707Z,1033.32
2019-02-25T07:55:07.693Z,1033.31
2019-02-25T07:56:07.700Z,1033.24
2019-02-25T07:57:07.650Z,1033.23
2019-02-25T07:58:07.740Z,1033.24
2019-02-25T07:59:07.695Z,1033.20
2019-02-25T08:00:28.627Z,1033.12
2019-02-25T08:01:07.776Z,1033.15
2019-02-25T08:02:07.753Z,1033.12
2019-02-25T08:03:07.575Z,1033.09
2019-02-25T08:04:07.571Z,1033.15
2019-02-25T08:05:07.599Z,1033.15
2019-02-25T08:06:07.748Z,1033.16
2019-02-25T08:07:07.536Z,1033.21
2019-02-25T08:08:07.834Z,1033.17
2019-02-25T08:09:07.534Z,1033.21
2019-02-25T08:10:07.506Z,1033.21
2019-02-25T08:11:07.497Z,1033.18
2019-02-25T08:12:07.491Z,1033.23
2019-02-25T08:13:07.619Z,1033.19
2019-02-25T08:14:07.458Z,1033.18
2019-02-25T08:15:08.941Z,1033.10
2019-02-25T08:16:07.441Z,1033.07
2019-02-25T08:17:07.431Z,1033.09
2019-02-25T08:18:07.545Z,1033.10
2019-02-25T08:19:07.404Z,1033.06
2019-02-25T08:20:07.395Z,1033.03
2019-02-25T08:21:07.378Z,1033.03
2019-02-25T08:22:07.375Z,1033.00
2019-02-25T08:23:07.373Z,1032.97
2019-02-25T08:24:07.476Z,1032.96
2019-02-25T08:25:07.398Z,1032.93
2019-02-25T08:26:07.324Z,1032.88
2019-02-25T08:27:07.316Z,1032.93
2019-02-25T08:28:07.318Z,1032.96
2019-02-25T08:29:07.303Z,1032.96
2019-02-25T08:30:07.418Z,1032.94
2019-02-25T08:31:09.189Z,1032.95
2019-02-25T08:32:07.269Z,1032.95
2019-02-25T08:33:07.249Z,1032.92
2019-02-25T08:34:07.241Z,1032.80
2019-02-25T08:35:07.253Z,1032.85
2019-02-25T08:36:07.455Z,1032.84
2019-02-25T08:37:07.264Z,1032.93
2019-02-25T08:38:07.331Z,1032.89
2019-02-25T08:39:07.220Z,1032.97
2019-02-25T08:40:07.224Z,1033.04
2019-02-25T08:41:07.194Z,1033.00
2019-02-25T08:42:07.636Z,1033.00
2019-02-25T08:43:07.142Z,1033.03
2019-02-25T08:44:07.136Z,1033.04
2019-02-25T08:45:08.263Z,1033.01
2019-02-25T08:46:07.111Z,1033.06
2019-02-25T08:47:07.089Z,1032.99
2019-02-25T08:48:07.223Z,1032.99
2019-02-25T08:49:07.075Z,1032.98
2019-02-25T08:50:07.065Z,1032.97
2019-02-25T08:51:07.046Z,1032.98
2019-02-25T08:52:07.038Z,1033.00
2019-02-25T08:53:07.124Z,1033.01
2019-02-25T08:54:07.066Z,1032.97
2019-02-25T08:55:07.019Z,1033.06
2019-02-25T08:56:06.997Z,1033.09
2019-02-25T08:57:06.984Z,1033.07
2019-02-25T08:58:06.965Z,1033.13
2019-02-25T08:59:07.135Z,1033.08
2019-02-25T09:00:06.952Z,1033.10
2019-02-25T09:01:06.952Z,1033.16
2019-02-25T09:02:06.930Z,1033.16
2019-02-25T09:03:06.940Z,1033.16
2019-02-25T09:04:07.008Z,1033.11
2019-02-25T09:05:06.926Z,1033.11
2019-02-25T09:06:06.887Z,1033.11
2019-02-25T09:07:06.882Z,1033.12
2019-02-25T09:08:06.867Z,1033.19
2019-02-25T09:09:06.968Z,1033.22
2019-02-25T09:10:06.938Z,1033.14
2019-02-25T09:11:13.911Z,1033.15
2019-02-25T09:12:07.807Z,1033.14
2019-02-25T09:13:06.795Z,1033.16
2019-02-25T09:14:06.869Z,1033.19
2019-02-25T09:15:06.794Z,1033.13
2019-02-25T09:16:07.096Z,1033.14
2019-02-25T09:17:06.783Z,1033.11
2019-02-25T09:18:06.772Z,1033.12
2019-02-25T09:19:06.744Z,1033.06
2019-02-25T09:20:06.732Z,1033.10
2019-02-25T09:21:08.183Z,1033.09
2019-02-25T09:22:06.880Z,1033.07
2019-02-25T09:23:06.693Z,1033.13
2019-02-25T09:24:06.679Z,1033.07
2019-02-25T09:25:06.663Z,1033.11
2019-02-25T09:26:06.661Z,1033.08
2019-02-25T09:27:06.767Z,1033.06
2019-02-25T09:28:06.636Z,1033.14
2019-02-25T09:29:06.636Z,1033.08
2019-02-25T09:30:06.638Z,1033.09
2019-02-25T09:31:06.891Z,1033.08
2019-02-25T09:32:06.601Z,1033.10
2019-02-25T09:33:06.576Z,1033.14
2019-02-25T09:34:06.579Z,1033.04
2019-02-25T09:35:06.587Z,1033.09
2019-02-25T09:36:06.547Z,1033.06
2019-02-25T09:37:06.730Z,1033.07
2019-02-25T09:38:06.652Z,1033.05
2019-02-25T09:39:06.509Z,1033.03
2019-02-25T09:40:06.497Z,1033.05
2019-02-25T09:41:06.495Z,1033.11
2019-02-25T09:42:06.496Z,1033.07
2019-02-25T09:43:06.481Z,1033.05
2019-02-25T09:44:06.591Z,1033.07
2019-02-25T09:45:06.454Z,1033.03
2019-02-25T09:46:06.820Z,1032.99
2019-02-25T09:47:06.434Z,1033.00
2019-02-25T09:48:06.558Z,1033.05
2019-02-25T09:49:06.419Z,1033.09
2019-02-25T09:50:06.544Z,1033.05
2019-02-25T09:51:06.447Z,1033.03
2019-02-25T09:52:06.373Z,1033.08
2019-02-25T09:53:07.347Z,1033.11
2019-02-25T09:54:06.352Z,1033.08
2019-02-25T09:55:06.446Z,1033.14
2019-02-25T09:56:06.373Z,1033.12
2019-02-25T09:57:06.319Z,1033.19
2019-02-25T09:58:06.530Z,1033.18
2019-02-25T09:59:06.315Z,1033.17
2019-02-25T10:00:06.297Z,1033.06
2019-02-25T10:01:06.439Z,1033.03
2019-02-25T10:02:06.268Z,1033.03
2019-02-25T10:03:06.279Z,1032.99
2019-02-25T10:04:06.247Z,1032.96
2019-02-25T10:05:06.285Z,1032.92
2019-02-25T10:06:06.221Z,1032.85
2019-02-25T10:07:06.459Z,1032.85
2019-02-25T10:08:06.206Z,1032.87
2019-02-25T10:09:06.187Z,1032.82
2019-02-25T10:10:06.183Z,1032.81
2019-02-25T10:11:06.171Z,1032.67
2019-02-25T10:12:06.158Z,1032.64
2019-02-25T10:13:11.536Z,1032.65
2019-02-25T10:14:06.166Z,1032.60
2019-02-25T10:15:06.115Z,1032.65
2019-02-25T10:16:06.130Z,1032.69
2019-02-25T10:17:06.105Z,1032.64
2019-02-25T10:18:06.095Z,1032.77
2019-02-25T10:19:06.201Z,1032.72
2019-02-25T10:20:06.064Z,1032.75
2019-02-25T10:21:06.064Z,1032.81
2019-02-25T10:22:06.047Z,1032.72
2019-02-25T10:23:06.040Z,1032.71
2019-02-25T10:24:06.028Z,1032.72
2019-02-25T10:25:06.104Z,1032.78
2019-02-25T10:26:06.002Z,1032.77
2019-02-25T10:27:06.434Z,1032.73
2019-02-25T10:28:05.997Z,1032.75
2019-02-25T10:29:05.993Z,1032.77
2019-02-25T10:30:05.978Z,1032.77
2019-02-25T10:31:05.947Z,1032.76
2019-02-25T10:32:06.547Z,1032.80
2019-02-25T10:33:06.190Z,1032.81
2019-02-25T10:34:07.586Z,1032.79
2019-02-25T10:35:06.026Z,1032.83
2019-02-25T10:36:06.871Z,1032.81
2019-02-25T10:37:06.100Z,1032.80
2019-02-25T10:38:05.874Z,1032.71
2019-02-25T10:39:05.914Z,1032.74
2019-02-25T10:40:05.987Z,1032.77
2019-02-25T10:41:05.869Z,1032.74
2019-02-25T10:42:05.818Z,1032.76
2019-02-25T10:43:05.852Z,1032.71
2019-02-25T10:44:06.544Z,1032.60
2019-02-25T10:45:07.239Z,1032.62
2019-02-25T10:46:06.959Z,1032.63
2019-02-25T10:47:05.785Z,1032.65
2019-02-25T10:48:05.786Z,1032.61
2019-02-25T10:49:11.612Z,1032.65
2019-02-25T10:50:07.446Z,1032.62
2019-02-25T10:51:07.045Z,1032.56
2019-02-25T10:52:07.067Z,1032.68
2019-02-25T10:53:05.714Z,1032.55
2019-02-25T10:54:05.739Z,1032.67
2019-02-25T10:55:05.678Z,1032.69
2019-02-25T10:56:05.674Z,1032.68
2019-02-25T10:57:05.693Z,1032.51
2019-02-25T10:58:05.812Z,1032.52
2019-02-25T10:59:06.245Z,1032.62
2019-02-25T11:00:07.380Z,1032.58
2019-02-25T11:01:07.224Z,1032.58
2019-02-25T11:02:05.606Z,1032.59
2019-02-25T11:03:05.597Z,1032.60
2019-02-25T11:04:05.686Z,1032.57
2019-02-25T11:05:05.680Z,1032.50
2019-02-25T11:06:05.555Z,1032.51
2019-02-25T11:07:07.399Z,1032.43
2019-02-25T11:08:07.365Z,1032.36
2019-02-25T11:09:07.011Z,1032.40
2019-02-25T11:10:05.515Z,1032.44
2019-02-25T11:11:05.677Z,1032.42
2019-02-25T11:12:05.603Z,1032.36
2019-02-25T11:13:05.492Z,1032.35
2019-02-25T11:14:07.081Z,1032.30
2019-02-25T11:15:07.395Z,1032.30
2019-02-25T11:16:05.452Z,1032.33
2019-02-25T11:17:05.575Z,1032.36
2019-02-25T11:18:05.427Z,1032.33
2019-02-25T11:19:05.428Z,1032.29
2019-02-25T11:20:05.732Z,1032.32
2019-02-25T11:21:06.144Z,1032.32
2019-02-25T11:22:07.333Z,1032.30
2019-02-25T11:23:05.462Z,1032.29
2019-02-25T11:24:05.379Z,1032.20
2019-02-25T11:25:05.360Z,1032.20
2019-02-25T11:26:05.423Z,1032.21
2019-02-25T11:27:07.203Z,1032.20
2019-02-25T11:28:07.633Z,1032.18
2019-02-25T11:29:06.068Z,1032.18
2019-02-25T11:30:05.374Z,1032.20
2019-02-25T11:31:05.336Z,1032.16
2019-02-25T11:32:05.358Z,1032.14
2019-02-25T11:33:05.317Z,1032.17
2019-02-25T11:34:06.432Z,1032.19
2019-02-25T11:35:06.305Z,1032.20
2019-02-25T11:36:05.292Z,1032.25
2019-02-25T11:37:05.227Z,1032.21
2019-02-25T11:38:05.258Z,1032.21
2019-02-25T11:39:07.012Z,1032.23
2019-02-25T11:40:05.410Z,1032.21
2019-02-25T11:41:07.140Z,1032.21
2019-02-25T11:42:06.154Z,1032.25
2019-02-25T11:43:05.823Z,1032.24
2019-02-25T11:44:05.158Z,1032.26
2019-02-25T11:45:05.139Z,1032.27
2019-02-25T11:46:05.249Z,1032.25
2019-02-25T11:47:05.271Z,1032.20
2019-02-25T11:48:05.131Z,1032.20
2019-02-25T11:49:05.200Z,1032.12
2019-02-25T11:50:05.085Z,1032.12
2019-02-25T11:51:05.082Z,1032.04
2019-02-25T11:52:05.074Z,1032.00
2019-02-25T11:53:05.045Z,1031.94
2019-02-25T11:54:05.145Z,1031.94
2019-02-25T11:55:05.050Z,1031.91
2019-02-25T11:56:05.025Z,1031.95
2019-02-25T11:57:05.011Z,1031.92
2019-02-25T11:58:05.004Z,1031.94
2019-02-25T11:59:04.983Z,1031.96
2019-02-25T12:00:05.135Z,1031.96
2019-02-25T12:01:05.049Z,1031.95
2019-02-25T12:02:04.956Z,1031.98
2019-02-25T12:03:04.935Z,1031.86
2019-02-25T12:04:04.963Z,1031.78
2019-02-25T12:05:05.041Z,1031.76